createdAt,value
2016-04-05T00:00:49.999Z,990.31
2016-04-05T00:01:50.016Z,990.29
2016-04-05T00:02:50.035Z,990.27
2016-04-05T00:03:50.054Z,990.29
2016-04-05T00:04:50.072Z,990.24
2016-04-05T00:05:50.090Z,990.27
2016-04-05T00:06:50.109Z,990.2
2016-04-05T00:07:50.127Z,990.22
2016-04-05T00:08:50.146Z,990.26
2016-04-05T00:09:50.163Z,990.23
2016-04-05T00:10:50.182Z,990.3
2016-04-05T00:11:50.216Z,990.3
2016-04-05T00:12:50.218Z,990.3
2016-04-05T00:13:50.252Z,990.26
2016-04-05T00:14:50.270Z,990.24
2016-04-05T00:15:50.289Z,990.27
2016-04-05T00:16:50.307Z,990.27
2016-04-05T00:17:50.325Z,990.23
2016-04-05T00:18:50.345Z,990.23
2016-04-05T00:19:50.362Z,990.21
2016-04-05T00:20:50.381Z,990.21
2016-04-05T00:21:50.399Z,990.19
2016-04-05T00:22:50.417Z,990.17
2016-04-05T00:23:50.436Z,990.11
2016-04-05T00:24:50.453Z,990.09
2016-04-05T00:25:50.472Z,990.06
2016-04-05T00:26:50.506Z,990.1
2016-04-05T00:27:50.525Z,990.06
2016-04-05T00:28:50.543Z,990.02
2016-04-05T00:29:50.561Z,989.95
2016-04-05T00:30:50.580Z,989.92
2016-04-05T00:31:50.598Z,989.83
2016-04-05T00:32:50.617Z,989.77
2016-04-05T00:33:50.635Z,989.8
2016-04-05T00:34:50.653Z,989.77
2016-04-05T00:35:50.671Z,989.77
2016-04-05T00:36:50.689Z,989.82
2016-04-05T00:37:50.707Z,989.84
2016-04-05T00:38:50.741Z,989.9
2016-04-05T00:39:50.744Z,989.92
2016-04-05T00:40:50.763Z,989.97
2016-04-05T00:41:50.797Z,989.97
2016-04-05T00:42:50.815Z,990.06
2016-04-05T00:43:50.818Z,990.04
2016-04-05T00:44:50.851Z,990.07
2016-04-05T00:45:50.870Z,990.08
2016-04-05T00:46:50.888Z,990.09
2016-04-05T00:47:50.906Z,990.02
2016-04-05T00:48:50.925Z,990.03
2016-04-05T00:49:50.942Z,990.08
2016-04-05T00:50:50.961Z,990.09
2016-04-05T00:51:50.979Z,990.11
2016-04-05T00:52:50.997Z,990.11
2016-04-05T00:53:51.017Z,990.09
2016-04-05T00:54:51.034Z,990.04
2016-04-05T00:55:51.053Z,990.01
2016-04-05T00:56:51.087Z,989.96
2016-04-05T00:57:51.105Z,989.95
2016-04-05T00:58:51.123Z,989.97
2016-04-05T00:59:51.141Z,989.92
2016-04-05T01:00:51.160Z,989.91
2016-04-05T01:01:51.178Z,989.93
2016-04-05T01:02:51.197Z,989.92
2016-04-05T01:03:51.231Z,989.96
2016-04-05T01:04:51.250Z,989.93
2016-04-05T01:05:51.252Z,989.98
2016-04-05T01:06:51.270Z,990.01
2016-04-05T01:07:51.288Z,989.93
2016-04-05T01:08:51.307Z,989.93
2016-04-05T01:09:51.325Z,989.86
2016-04-05T01:10:51.359Z,989.84
2016-04-05T01:11:51.377Z,989.79
2016-04-05T01:12:51.395Z,989.74
2016-04-05T01:13:51.413Z,989.71
2016-04-05T01:14:51.432Z,989.7
2016-04-05T01:15:51.450Z,989.66
2016-04-05T01:16:51.468Z,989.72
2016-04-05T01:17:51.487Z,989.74
2016-04-05T01:18:51.506Z,989.7
2016-04-05T01:19:51.524Z,989.7
2016-04-05T01:20:51.557Z,989.7
2016-04-05T01:21:51.560Z,989.68
2016-04-05T01:22:51.578Z,989.64
2016-04-05T01:23:51.597Z,989.7
2016-04-05T01:24:51.631Z,989.67
2016-04-05T01:25:51.649Z,989.66
2016-04-05T01:26:51.667Z,989.67
2016-04-05T01:27:51.686Z,989.7
2016-04-05T01:28:51.703Z,989.73
2016-04-05T01:29:51.722Z,989.75
2016-04-05T01:30:51.741Z,989.69
2016-04-05T01:31:51.759Z,989.69
2016-04-05T01:32:51.778Z,989.67
2016-04-05T01:33:51.796Z,989.65
2016-04-05T01:34:51.814Z,989.66
2016-04-05T01:35:51.832Z,989.61
2016-04-05T01:36:51.850Z,989.62
2016-04-05T01:37:51.869Z,989.59
2016-04-05T01:38:51.887Z,989.58
2016-04-05T01:39:51.906Z,989.63
2016-04-05T01:40:51.924Z,989.65
2016-04-05T01:41:51.958Z,989.71
2016-04-05T01:42:51.961Z,989.71
2016-04-05T01:43:51.979Z,989.75
2016-04-05T01:44:52.013Z,989.71
2016-04-05T01:45:52.021Z,989.67
2016-04-05T01:46:52.045Z,989.67
2016-04-05T01:47:52.063Z,989.62
2016-04-05T01:48:52.626Z,989.61
2016-04-05T01:49:52.107Z,989.66
2016-04-05T01:50:52.125Z,989.65
2016-04-05T01:51:52.143Z,989.67
2016-04-05T01:52:52.162Z,989.68
2016-04-05T01:53:52.180Z,989.65
2016-04-05T01:54:52.199Z,989.64
2016-04-05T01:55:52.217Z,989.64
2016-04-05T01:56:52.235Z,989.64
2016-04-05T01:57:52.253Z,989.65
2016-04-05T01:58:52.272Z,989.65
2016-04-05T01:59:52.290Z,989.64
2016-04-05T02:00:52.309Z,989.65
2016-04-05T02:01:52.342Z,989.68
2016-04-05T02:02:52.361Z,989.69
2016-04-05T02:03:52.364Z,989.65
2016-04-05T02:04:52.398Z,989.67
2016-04-05T02:06:52.434Z,989.67
2016-04-05T02:07:52.458Z,989.66
2016-04-05T02:08:52.461Z,989.68
2016-04-05T02:09:52.494Z,989.64
2016-04-05T02:10:52.513Z,989.64
2016-04-05T02:11:52.530Z,989.71
2016-04-05T02:12:52.549Z,989.69
2016-04-05T02:13:52.568Z,989.68
2016-04-05T02:14:52.585Z,989.71
2016-04-05T02:15:52.604Z,989.75
2016-04-05T02:16:52.621Z,989.71
2016-04-05T02:17:52.640Z,989.69
2016-04-05T02:18:52.659Z,989.69
2016-04-05T02:19:52.677Z,989.63
2016-04-05T02:20:52.696Z,989.69
2016-04-05T02:21:52.729Z,989.65
2016-04-05T02:22:52.732Z,989.67
2016-04-05T02:23:52.751Z,989.61
2016-04-05T02:24:52.784Z,989.58
2016-04-05T02:25:52.803Z,989.56
2016-04-05T02:26:52.820Z,989.52
2016-04-05T02:27:52.839Z,989.47
2016-04-05T02:28:52.858Z,989.44
2016-04-05T02:29:52.938Z,989.36
2016-04-05T02:30:52.895Z,989.31
2016-04-05T02:31:52.912Z,989.29
2016-04-05T02:32:52.931Z,989.23
2016-04-05T02:33:52.949Z,989.12
2016-04-05T02:34:52.967Z,989.12
2016-04-05T02:35:53.002Z,989.08
2016-04-05T02:36:53.005Z,989.09
2016-04-05T02:37:53.038Z,989.15
2016-04-05T02:38:53.056Z,989.19
2016-04-05T02:39:53.074Z,989.2
2016-04-05T02:40:53.093Z,989.17
2016-04-05T02:41:53.111Z,989.14
2016-04-05T02:42:53.129Z,989.19
2016-04-05T02:43:53.149Z,989.15
2016-04-05T02:44:53.181Z,989.13
2016-04-05T02:45:53.171Z,989.14
2016-04-05T02:46:53.176Z,989.13
2016-04-05T02:47:53.182Z,989.17
2016-04-05T02:48:53.188Z,989.16
2016-04-05T02:49:53.193Z,989.16
2016-04-05T02:50:53.208Z,989.19
2016-04-05T02:51:53.222Z,989.16
2016-04-05T02:52:53.266Z,989.18
2016-04-05T02:53:53.264Z,989.17
2016-04-05T02:54:53.279Z,989.16
2016-04-05T02:55:53.296Z,989.12
2016-04-05T02:56:53.312Z,989.14
2016-04-05T02:57:53.329Z,989.16
2016-04-05T02:58:53.346Z,989.16
2016-04-05T02:59:53.378Z,989.27
2016-04-05T03:00:53.380Z,989.24
2016-04-05T03:01:53.397Z,989.27
2016-04-05T03:02:53.415Z,989.27
2016-04-05T03:03:53.433Z,989.23
2016-04-05T03:04:53.450Z,989.19
2016-04-05T03:05:53.469Z,989.17
2016-04-05T03:06:53.502Z,989.2
2016-04-05T03:07:53.505Z,989.2
2016-04-05T03:08:53.524Z,989.23
2016-04-05T03:09:53.558Z,989.23
2016-04-05T03:10:53.561Z,989.24
2016-04-05T03:11:53.594Z,989.2
2016-04-05T03:12:53.613Z,989.22
2016-04-05T03:13:53.632Z,989.18
2016-04-05T03:14:53.665Z,989.2
2016-04-05T03:15:53.668Z,989.16
2016-04-05T03:16:53.686Z,989.14
2016-04-05T03:17:53.704Z,989.14
2016-04-05T03:18:53.723Z,989.12
2016-04-05T03:19:53.740Z,989.11
2016-04-05T03:20:53.759Z,989.11
2016-04-05T03:21:53.778Z,989.17
2016-04-05T03:22:53.796Z,989.14
2016-04-05T03:23:53.814Z,989.14
2016-04-05T03:24:53.832Z,989.13
2016-04-05T03:25:53.851Z,989.11
2016-04-05T03:26:53.870Z,989.1
2016-04-05T03:27:53.887Z,989.12
2016-04-05T03:28:53.922Z,989.07
2016-04-05T03:29:53.956Z,989.03
2016-04-05T03:30:53.959Z,989.09
2016-04-05T03:31:53.977Z,989.08
2016-04-05T03:32:53.995Z,989.1
2016-04-05T03:33:54.014Z,989.13
2016-04-05T03:34:54.032Z,989.15
2016-04-05T03:35:54.031Z,989.13
2016-04-05T03:36:54.066Z,989.13
2016-04-05T03:37:54.083Z,989.15
2016-04-05T03:38:54.103Z,989.16
2016-04-05T03:39:54.121Z,989.19
2016-04-05T03:40:54.139Z,989.17
2016-04-05T03:41:54.157Z,989.18
2016-04-05T03:42:54.175Z,989.15
2016-04-05T03:43:54.194Z,989.14
2016-04-05T03:44:54.213Z,989.14
2016-04-05T03:45:54.230Z,989.13
2016-04-05T03:46:54.249Z,989.12
2016-04-05T03:47:54.268Z,989.14
2016-04-05T03:48:54.286Z,989.16
2016-04-05T03:49:54.304Z,989.14
2016-04-05T03:50:54.322Z,989.15
2016-04-05T03:51:54.340Z,989.15
2016-04-05T03:52:54.359Z,989.17
2016-04-05T03:53:54.377Z,989.16
2016-04-05T03:54:54.396Z,989.13
2016-04-05T03:55:54.415Z,989.14
2016-04-05T03:56:54.432Z,989.16
2016-04-05T03:57:54.451Z,989.16
2016-04-05T03:58:54.468Z,989.13
2016-04-05T03:59:54.503Z,989.16
2016-04-05T04:00:54.505Z,989.18
2016-04-05T04:01:54.539Z,989.19
2016-04-05T04:02:54.542Z,989.18
2016-04-05T04:03:54.575Z,989.18
2016-04-05T04:04:54.594Z,989.12
2016-04-05T04:05:54.612Z,989.11
2016-04-05T04:06:54.631Z,989.08
2016-04-05T04:07:54.650Z,989.13
2016-04-05T04:08:54.667Z,989.08
2016-04-05T04:09:54.686Z,989.1
2016-04-05T04:10:54.705Z,989.12
2016-04-05T04:11:54.723Z,989.12
2016-04-05T04:12:54.741Z,989.14
2016-04-05T04:13:54.759Z,989.13
2016-04-05T04:14:54.777Z,989.1
2016-04-05T04:15:54.811Z,989.14
2016-04-05T04:16:54.814Z,989.13
2016-04-05T04:17:54.848Z,989.18
2016-04-05T04:18:54.866Z,989.17
2016-04-05T04:19:54.885Z,989.18
2016-04-05T04:20:54.902Z,989.18
2016-04-05T04:21:54.921Z,989.22
2016-04-05T04:22:54.939Z,989.23
2016-04-05T04:23:54.957Z,989.2
2016-04-05T04:24:54.976Z,989.24
2016-04-05T04:25:54.995Z,989.23
2016-04-05T04:26:55.013Z,989.24
2016-04-05T04:27:55.031Z,989.22
2016-04-05T04:28:55.049Z,989.22
2016-04-05T04:29:55.067Z,989.21
2016-04-05T04:30:55.086Z,989.26
2016-04-05T04:31:55.120Z,989.26
2016-04-05T04:32:55.123Z,989.23
2016-04-05T04:33:55.157Z,989.23
2016-04-05T04:34:55.175Z,989.3
2016-04-05T04:35:55.192Z,989.32
2016-04-05T04:36:55.212Z,989.33
2016-04-05T04:37:55.230Z,989.33
2016-04-05T04:38:55.248Z,989.39
2016-04-05T04:39:55.267Z,989.37
2016-04-05T04:40:55.285Z,989.35
2016-04-05T04:41:55.303Z,989.4
2016-04-05T04:42:55.322Z,989.41
2016-04-05T04:43:55.339Z,989.46
2016-04-05T04:44:55.358Z,989.47
2016-04-05T04:45:55.377Z,989.52
2016-04-05T04:46:55.395Z,989.48
2016-04-05T04:47:55.413Z,989.54
2016-04-05T04:48:55.447Z,989.53
2016-04-05T04:49:55.465Z,989.58
2016-04-05T04:50:55.483Z,989.54
2016-04-05T04:51:55.502Z,989.56
2016-04-05T04:52:55.520Z,989.59
2016-04-05T04:53:55.539Z,989.6
2016-04-05T04:54:55.557Z,989.59
2016-04-05T04:55:55.575Z,989.62
2016-04-05T04:56:55.594Z,989.63
2016-04-05T04:57:55.612Z,989.57
2016-04-05T04:58:55.646Z,989.57
2016-04-05T04:59:55.664Z,989.59
2016-04-05T05:00:55.667Z,989.58
2016-04-05T05:01:55.701Z,989.56
2016-04-05T05:02:55.719Z,989.57
2016-04-05T05:03:55.737Z,989.59
2016-04-05T05:04:55.756Z,989.64
2016-04-05T05:05:55.773Z,989.59
2016-04-05T05:06:55.792Z,989.62
2016-04-05T05:07:55.811Z,989.64
2016-04-05T05:08:55.829Z,989.65
2016-04-05T05:09:55.847Z,989.64
2016-04-05T05:10:55.866Z,989.68
2016-04-05T05:11:55.884Z,989.71
2016-04-05T05:12:55.902Z,989.73
2016-04-05T05:13:55.920Z,989.72
2016-04-05T05:14:55.939Z,989.67
2016-04-05T05:15:55.973Z,989.67
2016-04-05T05:16:55.975Z,989.72
2016-04-05T05:17:55.993Z,989.64
2016-04-05T05:18:56.013Z,989.72
2016-04-05T05:19:56.046Z,989.65
2016-04-05T05:20:56.063Z,989.7
2016-04-05T05:21:56.083Z,989.61
2016-04-05T05:22:56.101Z,989.64
2016-04-05T05:23:56.119Z,989.66
2016-04-05T05:24:56.138Z,989.64
2016-04-05T05:25:56.156Z,989.65
2016-04-05T05:26:56.174Z,989.65
2016-04-05T05:27:56.193Z,989.69
2016-04-05T05:28:56.211Z,989.7
2016-04-05T05:29:56.229Z,989.71
2016-04-05T05:30:56.248Z,989.74
2016-04-05T05:31:56.265Z,989.7
2016-04-05T05:32:56.284Z,989.72
2016-04-05T05:33:56.303Z,989.76
2016-04-05T05:34:56.336Z,989.77
2016-04-05T05:35:56.339Z,989.77
2016-04-05T05:36:56.373Z,989.81
2016-04-05T05:37:56.391Z,989.79
2016-04-05T05:38:56.410Z,989.8
2016-04-05T05:39:56.428Z,989.8
2016-04-05T05:40:56.446Z,989.82
2016-04-05T05:41:56.465Z,989.81
2016-04-05T05:42:56.483Z,989.78
2016-04-05T05:43:56.501Z,989.78
2016-04-05T05:44:56.520Z,989.85
2016-04-05T05:45:56.538Z,989.81
2016-04-05T05:46:56.556Z,989.83
2016-04-05T05:47:56.574Z,989.83
2016-04-05T05:48:56.593Z,989.82
2016-04-05T05:49:56.626Z,989.81
2016-04-05T05:50:56.629Z,989.87
2016-04-05T05:51:56.663Z,989.85
2016-04-05T05:52:56.682Z,989.86
2016-04-05T05:53:56.700Z,989.85
2016-04-05T05:54:56.718Z,989.88
2016-04-05T05:55:56.737Z,989.89
2016-04-05T05:56:56.755Z,989.86
2016-04-05T05:57:56.773Z,989.86
2016-04-05T05:58:56.791Z,989.88
2016-04-05T05:59:56.810Z,989.84
2016-04-05T06:00:56.829Z,989.86
2016-04-05T06:01:56.862Z,989.87
2016-04-05T06:02:56.864Z,989.86
2016-04-05T06:03:56.884Z,989.85
2016-04-05T06:04:56.901Z,989.85
2016-04-05T06:05:56.934Z,989.87
2016-04-05T06:06:56.954Z,989.93
2016-04-05T06:07:56.972Z,989.93
2016-04-05T06:08:56.990Z,989.92
2016-04-05T06:09:57.009Z,989.95
2016-04-05T06:10:57.027Z,989.92
2016-04-05T06:11:57.045Z,989.93
2016-04-05T06:12:57.064Z,989.94
2016-04-05T06:13:57.081Z,989.93
2016-04-05T06:14:57.100Z,989.97
2016-04-05T06:15:57.119Z,989.95
2016-04-05T06:16:57.136Z,989.91
2016-04-05T06:17:57.155Z,989.92
2016-04-05T06:18:57.189Z,989.92
2016-04-05T06:19:57.222Z,989.92
2016-04-05T06:20:57.241Z,989.95
2016-04-05T06:21:57.244Z,989.94
2016-04-05T06:22:57.263Z,989.91
2016-04-05T06:23:57.281Z,989.93
2016-04-05T06:24:57.299Z,989.93
2016-04-05T06:25:57.317Z,989.96
2016-04-05T06:26:57.336Z,989.93
2016-04-05T06:27:57.354Z,989.93
2016-04-05T06:28:57.371Z,989.87
2016-04-05T06:29:57.391Z,989.9
2016-04-05T06:30:57.409Z,989.9
2016-04-05T06:31:57.427Z,989.93
2016-04-05T06:32:57.461Z,989.92
2016-04-05T06:33:57.464Z,989.96
2016-04-05T06:34:57.498Z,989.97
2016-04-05T06:35:57.515Z,989.93
2016-04-05T06:36:57.534Z,989.96
2016-04-05T06:37:57.553Z,989.94
2016-04-05T06:38:57.571Z,989.92
2016-04-05T06:39:57.589Z,989.93
2016-04-05T06:40:57.608Z,989.91
2016-04-05T06:41:57.626Z,989.92
2016-04-05T06:42:57.644Z,989.93
2016-04-05T06:43:57.662Z,989.92
2016-04-05T06:44:57.697Z,989.9
2016-04-05T06:45:57.731Z,989.89
2016-04-05T06:46:57.717Z,989.89
2016-04-05T06:47:57.751Z,989.93
2016-04-05T06:48:57.770Z,989.94
2016-04-05T06:49:57.788Z,989.94
2016-04-05T06:50:57.806Z,989.94
2016-04-05T06:51:57.825Z,989.92
2016-04-05T06:52:57.843Z,989.9
2016-04-05T06:53:57.861Z,989.93
2016-04-05T06:54:57.880Z,989.97
2016-04-05T06:55:57.898Z,989.95
2016-04-05T06:56:57.916Z,989.94
2016-04-05T06:57:57.935Z,989.94
2016-04-05T06:58:57.952Z,989.93
2016-04-05T06:59:57.971Z,989.89
2016-04-05T07:00:58.005Z,989.92
2016-04-05T07:01:58.023Z,989.87
2016-04-05T07:02:58.042Z,989.9
2016-04-05T07:03:58.060Z,989.89
2016-04-05T07:04:58.078Z,989.89
2016-04-05T07:05:58.096Z,989.87
2016-04-05T07:06:58.115Z,989.84
2016-04-05T07:07:58.135Z,989.83
2016-04-05T07:08:58.169Z,989.85
2016-04-05T07:09:58.172Z,989.87
2016-04-05T07:10:58.189Z,989.85
2016-04-05T07:11:58.224Z,989.82
2016-04-05T07:12:58.242Z,989.85
2016-04-05T07:13:58.245Z,989.83
2016-04-05T07:14:58.279Z,989.79
2016-04-05T07:15:58.282Z,989.82
2016-04-05T07:16:58.316Z,989.82
2016-04-05T07:17:58.334Z,989.78
2016-04-05T07:18:58.352Z,989.79
2016-04-05T07:19:58.371Z,989.77
2016-04-05T07:20:58.389Z,989.78
2016-04-05T07:21:58.407Z,989.76
2016-04-05T07:22:58.426Z,989.75
2016-04-05T07:23:58.444Z,989.8
2016-04-05T07:24:58.462Z,989.83
2016-04-05T07:25:58.496Z,989.77
2016-04-05T07:26:58.514Z,989.79
2016-04-05T07:27:58.517Z,989.76
2016-04-05T07:28:58.551Z,989.8
2016-04-05T07:29:58.569Z,989.77
2016-04-05T07:30:58.588Z,989.78
2016-04-05T07:31:58.606Z,989.78
2016-04-05T07:32:58.623Z,989.75
2016-04-05T07:33:58.642Z,989.79
2016-04-05T07:34:58.661Z,989.83
2016-04-05T07:35:58.679Z,989.81
2016-04-05T07:36:58.697Z,989.87
2016-04-05T07:37:58.732Z,989.89
2016-04-05T07:38:58.750Z,989.91
2016-04-05T07:39:58.767Z,989.93
2016-04-05T07:40:58.786Z,989.93
2016-04-05T07:41:58.805Z,989.94
2016-04-05T07:42:58.823Z,989.93
2016-04-05T07:43:58.841Z,989.94
2016-04-05T07:44:58.860Z,989.87
2016-04-05T07:45:58.878Z,989.94
2016-04-05T07:46:58.896Z,989.89
2016-04-05T07:47:58.914Z,989.89
2016-04-05T07:48:58.933Z,989.89
2016-04-05T07:49:58.967Z,989.87
2016-04-05T07:50:58.985Z,989.88
2016-04-05T07:51:59.004Z,989.92
2016-04-05T07:52:59.022Z,989.87
2016-04-05T07:53:59.040Z,989.89
2016-04-05T07:54:59.074Z,989.9
2016-04-05T07:55:59.077Z,989.88
2016-04-05T07:56:59.095Z,989.87
2016-04-05T07:57:59.113Z,989.86
2016-04-05T07:58:59.132Z,989.86
2016-04-05T07:59:59.165Z,989.85
2016-04-05T08:00:59.168Z,989.87
2016-04-05T08:01:59.186Z,989.87
2016-04-05T08:02:59.221Z,989.83
2016-04-05T08:03:59.239Z,989.79
2016-04-05T08:04:59.257Z,989.82
2016-04-05T08:05:59.276Z,989.86
2016-04-05T08:06:59.294Z,989.87
2016-04-05T08:07:59.312Z,989.81
2016-04-05T08:08:59.331Z,989.78
2016-04-05T08:09:59.348Z,989.75
2016-04-05T08:10:59.383Z,989.74
2016-04-05T08:11:59.400Z,989.77
2016-04-05T08:12:59.404Z,989.8
2016-04-05T08:13:59.438Z,989.8
2016-04-05T08:14:59.456Z,989.82
2016-04-05T08:15:59.505Z,989.83
2016-04-05T08:16:59.508Z,989.84
2016-04-05T08:17:59.511Z,989.84
2016-04-05T08:18:59.529Z,989.81
2016-04-05T08:19:59.548Z,989.84
2016-04-05T08:20:59.566Z,989.81
2016-04-05T08:21:59.584Z,989.82
2016-04-05T08:22:59.602Z,989.78
2016-04-05T08:23:59.635Z,989.72
2016-04-05T08:24:59.655Z,989.68
2016-04-05T08:25:59.673Z,989.67
2016-04-05T08:26:59.691Z,989.64
2016-04-05T08:27:59.710Z,989.66
2016-04-05T08:28:59.728Z,989.64
2016-04-05T08:29:59.746Z,989.64
2016-04-05T08:30:59.765Z,989.69
2016-04-05T08:31:59.782Z,989.63
2016-04-05T08:32:59.801Z,989.66
2016-04-05T08:33:59.835Z,989.67
2016-04-05T08:34:59.854Z,989.71
2016-04-05T08:35:59.872Z,989.75
2016-04-05T08:36:59.890Z,989.78
2016-04-05T08:37:59.908Z,989.74
2016-04-05T08:38:59.926Z,989.72
2016-04-05T08:39:59.945Z,989.7
2016-04-05T08:40:59.963Z,989.69
2016-04-05T08:41:59.982Z,989.71
2016-04-05T08:43:00.016Z,989.74
2016-04-05T08:44:00.018Z,989.73
2016-04-05T08:45:00.052Z,989.8
2016-04-05T08:46:00.070Z,989.73
2016-04-05T08:47:00.089Z,989.73
2016-04-05T08:48:00.107Z,989.76
2016-04-05T08:49:00.126Z,989.76
2016-04-05T08:50:00.144Z,989.7
2016-04-05T08:51:00.162Z,989.67
2016-04-05T08:52:00.180Z,989.67
2016-04-05T08:53:00.213Z,989.69
2016-04-05T08:54:00.233Z,989.67
2016-04-05T08:55:00.251Z,989.65
2016-04-05T08:56:00.269Z,989.63
2016-04-05T08:57:00.288Z,989.6
2016-04-05T08:58:00.306Z,989.54
2016-04-05T08:59:00.324Z,989.48
2016-04-05T09:00:00.343Z,989.48
2016-04-05T09:01:00.360Z,989.51
2016-04-05T09:02:00.395Z,989.59
2016-04-05T09:03:00.413Z,989.59
2016-04-05T09:04:00.432Z,989.6
2016-04-05T09:05:00.450Z,989.59
2016-04-05T09:06:00.468Z,989.64
2016-04-05T09:07:00.486Z,989.69
2016-04-05T09:08:00.520Z,989.76
2016-04-05T09:09:00.523Z,989.7
2016-04-05T09:10:00.546Z,989.76
2016-04-05T09:11:00.565Z,989.79
2016-04-05T09:12:00.598Z,989.74
2016-04-05T09:13:00.617Z,989.72
2016-04-05T09:14:00.650Z,989.69
2016-04-05T09:15:00.653Z,989.65
2016-04-05T09:16:00.672Z,989.63
2016-04-05T09:17:00.690Z,989.63
2016-04-05T09:18:00.708Z,989.63
2016-04-05T09:19:00.742Z,989.61
2016-04-05T09:20:00.761Z,989.65
2016-04-05T09:21:00.779Z,989.63
2016-04-05T09:22:00.797Z,989.67
2016-04-05T09:23:00.816Z,989.68
2016-04-05T09:24:00.834Z,989.68
2016-04-05T09:25:00.852Z,989.66
2016-04-05T09:26:00.870Z,989.69
2016-04-05T09:27:00.905Z,989.62
2016-04-05T09:28:00.923Z,989.64
2016-04-05T09:29:00.941Z,989.64
2016-04-05T09:30:00.959Z,989.63
2016-04-05T09:31:00.993Z,989.62
2016-04-05T09:32:00.996Z,989.59
2016-04-05T09:33:01.014Z,989.59
2016-04-05T09:34:01.048Z,989.6
2016-04-05T09:35:01.067Z,989.52
2016-04-05T09:36:01.085Z,989.55
2016-04-05T09:37:01.104Z,989.54
2016-04-05T09:38:01.122Z,989.52
2016-04-05T09:39:01.140Z,989.48
2016-04-05T09:40:01.158Z,989.45
2016-04-05T09:41:01.176Z,989.45
2016-04-05T09:42:01.210Z,989.47
2016-04-05T09:43:01.229Z,989.42
2016-04-05T09:44:01.247Z,989.5
2016-04-05T09:45:01.265Z,989.45
2016-04-05T09:46:01.377Z,989.52
2016-04-05T09:47:01.302Z,989.47
2016-04-05T09:48:01.319Z,989.51
2016-04-05T09:49:01.338Z,989.48
2016-04-05T09:50:01.373Z,989.44
2016-04-05T09:51:01.391Z,989.49
2016-04-05T09:52:01.409Z,989.48
2016-04-05T09:53:01.428Z,989.47
2016-04-05T09:54:01.446Z,989.43
2016-04-05T09:55:01.464Z,989.43
2016-04-05T09:56:01.482Z,989.45
2016-04-05T09:57:01.532Z,989.43
2016-04-05T09:58:01.535Z,989.47
2016-04-05T09:59:01.568Z,989.46
2016-04-05T10:00:01.571Z,989.49
2016-04-05T10:01:01.667Z,989.48
2016-04-05T10:02:01.624Z,989.48
2016-04-05T10:03:01.626Z,989.48
2016-04-05T10:04:01.692Z,989.45
2016-04-05T10:05:01.694Z,989.45
2016-04-05T10:06:01.728Z,989.44
2016-04-05T10:07:01.761Z,989.43
2016-04-05T10:08:01.733Z,989.46
2016-04-05T10:09:01.751Z,989.45
2016-04-05T10:10:01.769Z,989.42
2016-04-05T10:11:01.803Z,989.41
2016-04-05T10:12:01.822Z,989.39
2016-04-05T10:13:01.841Z,989.36
2016-04-05T10:14:01.859Z,989.35
2016-04-05T10:15:01.878Z,989.37
2016-04-05T10:16:01.911Z,989.39
2016-04-05T10:17:01.914Z,989.36
2016-04-05T10:18:01.933Z,989.34
2016-04-05T10:19:01.966Z,989.34
2016-04-05T10:20:01.985Z,989.33
2016-04-05T10:21:02.002Z,989.31
2016-04-05T10:22:02.021Z,989.32
2016-04-05T10:23:02.039Z,989.31
2016-04-05T10:24:02.057Z,989.33
2016-04-05T10:25:02.092Z,989.33
2016-04-05T10:26:02.110Z,989.28
2016-04-05T10:27:02.129Z,989.29
2016-04-05T10:28:02.147Z,989.25
2016-04-05T10:29:02.165Z,989.24
2016-04-05T10:30:02.183Z,989.27
2016-04-05T10:31:02.217Z,989.23
2016-04-05T10:32:02.235Z,989.25
2016-04-05T10:33:02.254Z,989.23
2016-04-05T10:34:02.273Z,989.24
2016-04-05T10:35:02.290Z,989.24
2016-04-05T10:36:02.309Z,989.25
2016-04-05T10:37:02.342Z,989.19
2016-04-05T10:38:02.361Z,989.25
2016-04-05T10:39:02.379Z,989.26
2016-04-05T10:40:02.397Z,989.21
2016-04-05T10:41:02.416Z,989.23
2016-04-05T10:42:02.434Z,989.25
2016-04-05T10:43:02.467Z,989.24
2016-04-05T10:44:02.487Z,989.25
2016-04-05T10:45:02.505Z,989.25
2016-04-05T10:46:02.523Z,989.28
2016-04-05T10:47:02.541Z,989.32
2016-04-05T10:48:02.575Z,989.24
2016-04-05T10:49:02.578Z,989.21
2016-04-05T10:50:02.611Z,989.27
2016-04-05T10:51:02.630Z,989.24
2016-04-05T10:52:02.649Z,989.24
2016-04-05T10:53:02.666Z,989.28
2016-04-05T10:54:02.685Z,989.24
2016-04-05T10:55:02.718Z,989.29
2016-04-05T10:56:02.722Z,989.27
2016-04-05T10:57:02.755Z,989.23
2016-04-05T10:58:02.774Z,989.27
2016-04-05T10:59:02.793Z,989.29
2016-04-05T11:00:02.811Z,989.26
2016-04-05T11:01:02.829Z,989.27
2016-04-05T11:02:02.863Z,989.25
2016-04-05T11:03:02.881Z,989.27
2016-04-05T11:04:02.900Z,989.32
2016-04-05T11:05:02.918Z,989.28
2016-04-05T11:06:02.937Z,989.29
2016-04-05T11:07:02.971Z,989.3
2016-04-05T11:08:02.975Z,989.29
2016-04-05T11:09:03.020Z,989.28
2016-04-05T11:10:03.023Z,989.26
2016-04-05T11:11:03.042Z,989.28
2016-04-05T11:12:03.059Z,989.3
2016-04-05T11:13:03.093Z,989.27
2016-04-05T11:14:03.112Z,989.25
2016-04-05T11:15:03.131Z,989.26
2016-04-05T11:16:03.149Z,989.27
2016-04-05T11:17:03.167Z,989.19
2016-04-05T11:18:03.201Z,989.2
2016-04-05T11:19:03.220Z,989.18
2016-04-05T11:20:03.237Z,989.23
2016-04-05T11:21:03.256Z,989.18
2016-04-05T11:22:03.290Z,989.2
2016-04-05T11:23:03.309Z,989.27
2016-04-05T11:24:03.327Z,989.26
2016-04-05T11:25:03.360Z,989.29
2016-04-05T11:26:03.378Z,989.27
2016-04-05T11:27:03.397Z,989.25
2016-04-05T11:28:03.416Z,989.23
2016-04-05T11:29:03.434Z,989.21
2016-04-05T11:30:03.452Z,989.22
2016-04-05T11:31:03.486Z,989.2
2016-04-05T11:32:03.505Z,989.2
2016-04-05T11:33:03.522Z,989.18
2016-04-05T11:34:03.557Z,989.12
2016-04-05T11:35:03.575Z,989.19
2016-04-05T11:36:03.609Z,989.23
2016-04-05T11:37:03.627Z,989.22
2016-04-05T11:38:03.645Z,989.16
2016-04-05T11:39:03.663Z,989.1
2016-04-05T11:40:03.682Z,989.1
2016-04-05T11:41:03.715Z,989.03
2016-04-05T11:42:03.734Z,989.06
2016-04-05T11:43:03.752Z,989.11
2016-04-05T11:44:03.833Z,989.03
2016-04-05T11:45:03.804Z,988.99
2016-04-05T11:46:03.838Z,989.03
2016-04-05T11:47:03.857Z,989.01
2016-04-05T11:48:03.875Z,988.95
2016-04-05T11:49:03.925Z,988.98
2016-04-05T11:50:03.911Z,988.95
2016-04-05T11:51:03.943Z,988.97
2016-04-05T11:52:03.970Z,988.98
2016-04-05T11:53:03.978Z,988.94
2016-04-05T11:54:03.988Z,988.91
2016-04-05T11:55:03.998Z,989.03
2016-04-05T11:56:04.024Z,989
2016-04-05T11:57:04.039Z,988.99
2016-04-05T11:58:04.054Z,989.02
2016-04-05T11:59:04.084Z,988.96
2016-04-05T12:00:04.101Z,988.91
2016-04-05T12:01:04.116Z,988.97
2016-04-05T12:02:04.149Z,988.87
2016-04-05T12:03:04.166Z,988.9
2016-04-05T12:04:04.183Z,988.88
2016-04-05T12:05:04.200Z,988.88
2016-04-05T12:06:04.234Z,988.81
2016-04-05T12:07:04.252Z,988.79
2016-04-05T12:08:04.269Z,988.81
2016-04-05T12:09:04.318Z,988.91
2016-04-05T12:10:04.304Z,988.9
2016-04-05T12:11:04.323Z,988.83
2016-04-05T12:12:04.373Z,988.84
2016-04-05T12:13:04.391Z,988.84
2016-04-05T12:14:04.409Z,988.83
2016-04-05T12:15:04.428Z,988.91
2016-04-05T12:16:04.461Z,988.93
2016-04-05T12:17:04.480Z,988.88
2016-04-05T12:18:04.498Z,988.79
2016-04-05T12:19:04.533Z,988.84
2016-04-05T12:20:04.550Z,988.78
2016-04-05T12:21:04.569Z,988.84
2016-04-05T12:22:04.586Z,988.84
2016-04-05T12:23:04.605Z,988.86
2016-04-05T12:24:04.639Z,988.85
2016-04-05T12:25:04.658Z,988.95
2016-04-05T12:26:04.676Z,988.9
2016-04-05T12:27:04.710Z,988.9
2016-04-05T12:28:04.727Z,988.83
2016-04-05T12:29:04.747Z,988.74
2016-04-05T12:30:04.780Z,988.79
2016-04-05T12:31:04.799Z,988.83
2016-04-05T12:32:04.817Z,988.8